createdAt,value
2023-05-04T00:00:36.655Z,99.90
2023-05-04T00:02:11.984Z,99.90
2023-05-04T00:03:45.349Z,99.90
2023-05-04T00:05:19.734Z,99.90
2023-05-04T00:06:52.487Z,99.90
2023-05-04T00:08:25.364Z,99.90
2023-05-04T00:09:58.119Z,99.90
2023-05-04T00:11:30.927Z,99.90
2023-05-04T00:13:03.779Z,99.90
2023-05-04T00:14:35.696Z,99.90
2023-05-04T00:16:10.642Z,99.90
2023-05-04T00:17:42.909Z,99.90
2023-05-04T00:19:15.718Z,99.90
2023-05-04T00:20:49.851Z,99.90
2023-05-04T00:22:21.711Z,99.90
2023-05-04T00:23:54.511Z,99.90
2023-05-04T00:25:27.352Z,99.90
2023-05-04T00:27:00.127Z,99.90
2023-05-04T00:28:31.917Z,99.90
2023-05-04T00:30:05.168Z,99.90
2023-05-04T00:31:37.141Z,99.90
2023-05-04T00:33:09.935Z,99.90
2023-05-04T00:34:42.999Z,99.90
2023-05-04T00:36:17.385Z,99.90
2023-05-04T00:37:50.398Z,99.90
2023-05-04T00:39:23.280Z,99.90
2023-05-04T00:40:57.832Z,99.90
2023-05-04T00:42:30.627Z,99.90
2023-05-04T00:44:04.320Z,99.90
2023-05-04T00:45:37.067Z,99.90
2023-05-04T00:47:10.069Z,99.90
2023-05-04T00:48:43.323Z,99.90
2023-05-04T00:50:16.304Z,99.90
2023-05-04T00:51:50.896Z,99.90
2023-05-04T00:53:22.796Z,99.90
2023-05-04T00:54:55.704Z,99.90
2023-05-04T00:56:29.023Z,99.90
2023-05-04T00:58:01.327Z,99.90
2023-05-04T00:59:34.321Z,99.90
2023-05-04T01:01:06.358Z,99.90
2023-05-04T01:02:39.184Z,99.90
2023-05-04T01:04:14.015Z,99.90
2023-05-04T01:05:50.335Z,99.90
2023-05-04T01:07:28.044Z,99.90
2023-05-04T01:09:02.786Z,99.90
2023-05-04T01:10:40.919Z,99.90
2023-05-04T01:12:15.982Z,99.90
2023-05-04T01:13:49.991Z,99.90
2023-05-04T01:15:23.734Z,99.90
2023-05-04T01:16:58.965Z,99.90
2023-05-04T01:18:31.905Z,99.90
2023-05-04T01:20:05.376Z,99.90
2023-05-04T01:21:42.313Z,99.90
2023-05-04T01:23:15.138Z,99.90
2023-05-04T01:24:47.918Z,99.90
2023-05-04T01:26:24.187Z,99.90
2023-05-04T01:27:59.554Z,99.90
2023-05-04T01:29:34.728Z,99.90
2023-05-04T01:31:09.150Z,99.90
2023-05-04T01:32:42.792Z,99.90
2023-05-04T01:34:17.377Z,99.90
2023-05-04T01:35:49.786Z,99.90
2023-05-04T01:37:23.945Z,99.90
2023-05-04T01:38:57.613Z,99.90
2023-05-04T01:40:30.527Z,99.90
2023-05-04T01:42:02.486Z,99.90
2023-05-04T01:43:35.836Z,99.90
2023-05-04T01:45:09.376Z,99.90
2023-05-04T01:46:41.468Z,99.90
2023-05-04T01:48:14.350Z,99.90
2023-05-04T01:49:47.122Z,99.90
2023-05-04T01:51:20.106Z,99.90
2023-05-04T01:52:54.250Z,99.90
2023-05-04T01:54:27.205Z,99.90
2023-05-04T01:55:59.068Z,99.90
2023-05-04T01:57:31.843Z,99.90
2023-05-04T01:59:04.556Z,99.90
2023-05-04T02:00:36.376Z,99.90
2023-05-04T02:02:09.232Z,99.90
2023-05-04T02:03:42.185Z,99.90
2023-05-04T02:05:15.052Z,99.90
2023-05-04T02:06:48.907Z,99.90
2023-05-04T02:08:23.254Z,99.90
2023-05-04T02:09:56.078Z,99.90
2023-05-04T02:11:28.876Z,99.90
2023-05-04T02:13:01.893Z,99.90
2023-05-04T02:14:34.828Z,99.90
2023-05-04T02:16:06.900Z,99.90
2023-05-04T02:17:39.852Z,99.90
2023-05-04T02:19:11.656Z,99.90
2023-05-04T02:20:44.414Z,99.90
2023-05-04T02:22:17.200Z,99.90
2023-05-04T02:23:51.870Z,99.90
2023-05-04T02:25:24.690Z,99.90
2023-05-04T02:26:57.444Z,99.90
2023-05-04T02:28:29.221Z,99.90
2023-05-04T02:30:02.035Z,99.90
2023-05-04T02:31:35.117Z,99.90
2023-05-04T02:33:08.161Z,99.90
2023-05-04T02:34:40.311Z,99.90
2023-05-04T02:36:13.041Z,99.90
2023-05-04T02:37:44.825Z,99.90
2023-05-04T02:39:18.973Z,99.90
2023-05-04T02:40:51.822Z,99.90
2023-05-04T02:42:23.600Z,99.90
2023-05-04T02:43:56.446Z,99.90
2023-05-04T02:45:28.368Z,99.90
2023-05-04T02:47:01.631Z,99.90
2023-05-04T02:48:34.479Z,99.90
2023-05-04T02:50:08.029Z,99.90
2023-05-04T02:51:41.440Z,99.90
2023-05-04T02:53:14.184Z,99.90
2023-05-04T02:54:48.317Z,99.90
2023-05-04T02:56:21.346Z,99.90
2023-05-04T02:57:54.327Z,99.90
2023-05-04T02:59:27.264Z,99.90
2023-05-04T03:01:00.038Z,99.90
2023-05-04T03:02:32.873Z,99.90
2023-05-04T03:04:05.939Z,99.90
2023-05-04T03:05:38.961Z,99.90
2023-05-04T03:07:12.001Z,99.90
2023-05-04T03:08:43.819Z,99.90
2023-05-04T03:10:18.632Z,99.90
2023-05-04T03:11:51.511Z,99.90
2023-05-04T03:13:24.233Z,99.90
2023-05-04T03:14:55.981Z,99.90
2023-05-04T03:16:28.902Z,99.90
2023-05-04T03:18:01.958Z,99.90
2023-05-04T03:19:34.773Z,99.90
2023-05-04T03:21:07.644Z,99.90
2023-05-04T03:22:40.375Z,99.90
2023-05-04T03:24:13.173Z,99.90
2023-05-04T03:25:47.408Z,99.90
2023-05-04T03:27:20.180Z,99.90
2023-05-04T03:28:52.974Z,99.90
2023-05-04T03:30:25.852Z,99.90
2023-05-04T03:31:57.719Z,99.90
2023-05-04T03:33:30.581Z,99.90
2023-05-04T03:35:04.326Z,99.90
2023-05-04T03:36:37.235Z,99.90
2023-05-04T03:38:11.390Z,99.90
2023-05-04T03:39:44.134Z,99.90
2023-05-04T03:41:17.334Z,99.90
2023-05-04T03:42:50.212Z,99.90
2023-05-04T03:44:23.094Z,99.90
2023-05-04T03:45:55.934Z,99.90
2023-05-04T03:47:28.720Z,99.90
2023-05-04T03:49:00.778Z,99.90
2023-05-04T03:50:33.670Z,99.90
2023-05-04T03:52:06.676Z,99.90
2023-05-04T03:53:39.540Z,99.90
2023-05-04T03:55:12.403Z,99.90
2023-05-04T03:56:46.509Z,99.90
2023-05-04T03:58:19.286Z,99.90
2023-05-04T03:59:52.131Z,99.90
2023-05-04T04:01:24.875Z,99.90
2023-05-04T04:02:57.823Z,99.90
2023-05-04T04:04:33.985Z,99.90
2023-05-04T04:06:08.632Z,99.90
2023-05-04T04:07:41.820Z,99.90
2023-05-04T04:09:14.641Z,99.90
2023-05-04T04:10:47.461Z,99.90
2023-05-04T04:12:21.739Z,99.90
2023-05-04T04:13:54.530Z,99.90
2023-05-04T04:15:27.818Z,99.90
2023-05-04T04:17:00.659Z,99.90
2023-05-04T04:18:33.515Z,99.90
2023-05-04T04:20:07.095Z,99.90
2023-05-04T04:21:40.132Z,99.90
2023-05-04T04:23:13.088Z,99.90
2023-05-04T04:24:45.994Z,99.90
2023-05-04T04:26:18.773Z,99.90
2023-05-04T04:27:53.390Z,99.90
2023-05-04T04:29:26.277Z,99.90
2023-05-04T04:30:59.592Z,99.90
2023-05-04T04:32:34.052Z,99.90
2023-05-04T04:34:06.969Z,99.90
2023-05-04T04:35:39.822Z,99.90
2023-05-04T04:37:12.607Z,99.90
2023-05-04T04:38:46.410Z,99.90
2023-05-04T04:40:19.200Z,99.90
2023-05-04T04:41:51.990Z,99.90
2023-05-04T04:43:26.217Z,99.90
2023-05-04T04:44:58.990Z,99.90
2023-05-04T04:46:31.849Z,99.90
2023-05-04T04:48:03.931Z,99.90
2023-05-04T04:49:36.742Z,99.90
2023-05-04T04:51:10.943Z,99.90
2023-05-04T04:52:43.772Z,99.90
2023-05-04T04:54:16.695Z,99.90
2023-05-04T04:55:49.440Z,99.90
2023-05-04T04:57:22.215Z,99.90
2023-05-04T04:58:56.727Z,99.90
2023-05-04T05:00:29.624Z,99.90
2023-05-04T05:02:03.046Z,99.90
2023-05-04T05:03:36.144Z,99.90
2023-05-04T05:05:09.369Z,99.90
2023-05-04T05:06:42.229Z,99.90
2023-05-04T05:08:15.045Z,99.90
2023-05-04T05:09:47.912Z,99.90
2023-05-04T05:11:20.764Z,99.90
2023-05-04T05:12:53.543Z,99.90
2023-05-04T05:14:28.066Z,99.90
2023-05-04T05:16:00.811Z,99.90
2023-05-04T05:17:35.538Z,99.90
2023-05-04T05:19:08.451Z,99.90
2023-05-04T05:20:41.208Z,99.90
2023-05-04T05:22:14.101Z,99.90
2023-05-04T05:23:47.094Z,99.90
2023-05-04T05:25:20.081Z,99.90
2023-05-04T05:26:53.602Z,99.90
2023-05-04T05:28:26.410Z,99.90
2023-05-04T05:30:00.566Z,99.90
2023-05-04T05:31:33.549Z,99.90
2023-05-04T05:33:06.571Z,99.90
2023-05-04T05:34:39.494Z,99.90
2023-05-04T05:36:12.416Z,99.90
2023-05-04T05:37:45.416Z,99.90
2023-05-04T05:39:18.226Z,99.90
2023-05-04T05:40:51.090Z,99.90
2023-05-04T05:42:24.026Z,99.90
2023-05-04T05:43:56.795Z,99.90
2023-05-04T05:45:30.890Z,99.90
2023-05-04T05:47:03.678Z,99.90
2023-05-04T05:48:36.686Z,99.90
2023-05-04T05:50:09.618Z,99.90
2023-05-04T05:51:42.757Z,99.90
2023-05-04T05:53:15.804Z,99.90
2023-05-04T05:54:48.576Z,99.90
2023-05-04T05:56:22.176Z,99.90
2023-05-04T05:57:55.039Z,99.90
2023-05-04T05:59:27.836Z,99.90
2023-05-04T06:01:02.037Z,99.80
2023-05-04T06:02:35.161Z,99.80
2023-05-04T06:04:08.346Z,99.60
2023-05-04T06:05:41.281Z,99.30
2023-05-04T06:07:13.650Z,99.10
2023-05-04T06:08:46.636Z,99.00
2023-05-04T06:10:19.404Z,99.00
2023-05-04T06:11:54.760Z,98.90
2023-05-04T06:13:28.366Z,99.00
2023-05-04T06:15:01.375Z,99.00
2023-05-04T06:16:35.544Z,98.80
2023-05-04T06:18:08.409Z,98.60
2023-05-04T06:19:41.208Z,98.70
2023-05-04T06:21:14.552Z,98.20
2023-05-04T06:22:47.265Z,98.30
2023-05-04T06:24:21.636Z,98.20
2023-05-04T06:25:54.467Z,97.90
2023-05-04T06:27:28.971Z,97.60
2023-05-04T06:29:01.806Z,97.20
2023-05-04T06:30:34.666Z,97.20
2023-05-04T06:32:09.151Z,97.10
2023-05-04T06:33:42.222Z,97.00
2023-05-04T06:35:15.063Z,97.00
2023-05-04T06:36:48.931Z,96.90
2023-05-04T06:38:21.710Z,96.70
2023-05-04T06:39:55.055Z,96.30
2023-05-04T06:41:27.855Z,96.30
2023-05-04T06:43:00.632Z,96.10
2023-05-04T06:44:35.331Z,95.80
2023-05-04T06:46:08.468Z,95.80
2023-05-04T06:47:42.916Z,95.80
2023-05-04T06:49:17.686Z,95.70
2023-05-04T06:50:50.423Z,95.50
2023-05-04T06:52:23.205Z,95.50
2023-05-04T06:53:55.925Z,95.50
2023-05-04T06:55:28.885Z,95.50
2023-05-04T06:57:02.735Z,95.40
2023-05-04T06:58:35.687Z,95.40
2023-05-04T07:00:09.812Z,95.30
2023-05-04T07:01:42.861Z,95.00
2023-05-04T07:03:17.024Z,94.70
2023-05-04T07:04:49.789Z,94.50
2023-05-04T07:06:26.379Z,94.80
2023-05-04T07:07:59.676Z,94.60
2023-05-04T07:09:32.431Z,94.50
2023-05-04T07:11:05.420Z,94.50
2023-05-04T07:12:38.269Z,94.40
2023-05-04T07:14:11.238Z,94.20
2023-05-04T07:15:44.009Z,94.20
2023-05-04T07:17:16.898Z,93.90
2023-05-04T07:18:51.100Z,93.60
2023-05-04T07:20:26.063Z,93.50
2023-05-04T07:22:00.264Z,93.30
2023-05-04T07:23:32.995Z,93.20
2023-05-04T07:25:06.165Z,93.00
2023-05-04T07:26:38.859Z,92.80
2023-05-04T07:28:11.640Z,92.80
2023-05-04T07:29:44.366Z,92.60
2023-05-04T07:31:17.147Z,92.50
2023-05-04T07:32:49.902Z,92.40
2023-05-04T07:34:34.026Z,92.50
2023-05-04T07:36:15.001Z,92.30
2023-05-04T07:37:47.894Z,92.30
2023-05-04T07:39:20.634Z,92.40
2023-05-04T07:40:54.169Z,92.20
2023-05-04T07:42:28.018Z,91.80
2023-05-04T07:44:00.923Z,91.70
2023-05-04T07:45:33.704Z,91.70
2023-05-04T07:47:06.490Z,91.90
2023-05-04T07:48:39.220Z,91.80
2023-05-04T07:50:14.260Z,91.70
2023-05-04T07:51:46.988Z,91.70
2023-05-04T07:53:20.697Z,91.60
2023-05-04T07:54:54.179Z,91.60
2023-05-04T07:56:26.917Z,91.60
2023-05-04T07:57:59.672Z,91.30
2023-05-04T07:59:32.808Z,91.10
2023-05-04T08:01:05.803Z,90.90
2023-05-04T08:02:38.750Z,91.10
2023-05-04T08:04:11.771Z,91.20
2023-05-04T08:05:46.262Z,91.10
2023-05-04T08:07:20.475Z,91.10
2023-05-04T08:08:53.430Z,90.90
2023-05-04T08:10:26.221Z,90.80
2023-05-04T08:11:59.001Z,90.90
2023-05-04T08:13:31.770Z,90.80
2023-05-04T08:15:05.896Z,90.70
2023-05-04T08:16:39.705Z,90.70
2023-05-04T08:18:12.456Z,90.50
2023-05-04T08:19:45.339Z,90.40
2023-05-04T08:21:19.526Z,90.60
2023-05-04T08:22:52.302Z,90.50
2023-05-04T08:24:25.047Z,90.80
2023-05-04T08:25:57.895Z,90.60
2023-05-04T08:27:30.648Z,90.50
2023-05-04T08:29:07.817Z,90.40
2023-05-04T08:30:40.537Z,90.40
2023-05-04T08:32:13.360Z,90.50
2023-05-04T08:33:46.489Z,90.50
2023-05-04T08:35:19.282Z,90.50
2023-05-04T08:36:53.719Z,90.40
2023-05-04T08:38:26.576Z,90.30
2023-05-04T08:39:59.305Z,90.50
2023-05-04T08:41:32.046Z,90.50
2023-05-04T08:43:04.880Z,90.40
2023-05-04T08:44:37.721Z,90.50
2023-05-04T08:46:11.467Z,90.30
2023-05-04T08:47:45.063Z,90.20
2023-05-04T08:49:17.914Z,90.10
2023-05-04T08:50:50.742Z,90.30
2023-05-04T08:52:25.452Z,90.20
2023-05-04T08:53:58.536Z,90.20
2023-05-04T08:55:32.073Z,89.90
2023-05-04T08:57:05.158Z,90.00
2023-05-04T08:58:38.410Z,89.60
2023-05-04T09:00:13.505Z,89.30
2023-05-04T09:01:47.262Z,89.70
2023-05-04T09:03:20.240Z,89.40
2023-05-04T09:04:53.696Z,88.10
2023-05-04T09:06:26.911Z,88.10
2023-05-04T09:08:01.596Z,88.30
2023-05-04T09:09:35.429Z,88.70
2023-05-04T09:11:08.217Z,88.00
2023-05-04T09:12:41.115Z,86.80
2023-05-04T09:14:14.209Z,87.10
2023-05-04T09:15:54.536Z,86.80
2023-05-04T09:17:29.342Z,87.10
2023-05-04T09:19:02.413Z,87.10
2023-05-04T09:20:43.888Z,86.70
2023-05-04T09:22:17.356Z,86.40
2023-05-04T09:23:52.146Z,85.70
2023-05-04T09:25:25.169Z,85.30
2023-05-04T09:27:08.964Z,84.50
2023-05-04T09:28:42.085Z,85.10
2023-05-04T09:30:14.861Z,84.90
2023-05-04T09:31:48.359Z,85.50
2023-05-04T09:33:26.377Z,85.00
2023-05-04T09:34:59.096Z,84.00
2023-05-04T09:36:31.822Z,83.70
2023-05-04T09:38:05.053Z,83.60
2023-05-04T09:39:39.225Z,82.50
2023-05-04T09:41:12.011Z,82.40
2023-05-04T09:42:44.701Z,82.90
2023-05-04T09:44:21.273Z,82.30
2023-05-04T09:45:54.370Z,82.70
2023-05-04T09:47:36.881Z,83.20
2023-05-04T09:49:09.853Z,83.40
2023-05-04T09:50:48.236Z,82.60
2023-05-04T09:52:21.007Z,82.80
2023-05-04T09:53:54.078Z,81.40
2023-05-04T09:55:28.482Z,80.50
2023-05-04T09:57:06.221Z,81.00
2023-05-04T09:58:38.939Z,80.20
2023-05-04T10:00:13.050Z,81.10
2023-05-04T10:01:46.255Z,80.50
2023-05-04T10:03:19.236Z,81.10
2023-05-04T10:04:52.579Z,81.00
2023-05-04T10:06:25.585Z,81.50
2023-05-04T10:08:00.484Z,82.10
2023-05-04T10:09:33.530Z,82.10
2023-05-04T10:11:08.562Z,81.60
2023-05-04T10:12:41.376Z,81.90
2023-05-04T10:14:14.278Z,82.20
2023-05-04T10:15:53.156Z,82.20
2023-05-04T10:17:36.355Z,81.90
2023-05-04T10:19:18.134Z,81.90
2023-05-04T10:21:01.084Z,81.50
2023-05-04T10:22:45.222Z,81.60
2023-05-04T10:24:24.067Z,82.10
2023-05-04T10:26:08.671Z,81.00
2023-05-04T10:27:47.424Z,78.90
2023-05-04T10:29:23.762Z,78.50
2023-05-04T10:30:58.010Z,79.40
2023-05-04T10:32:30.837Z,79.30
2023-05-04T10:34:03.644Z,79.40
2023-05-04T10:35:37.796Z,79.40
2023-05-04T10:37:16.764Z,79.30
2023-05-04T10:38:49.597Z,79.80
2023-05-04T10:40:33.656Z,80.30
2023-05-04T10:42:07.364Z,78.70
2023-05-04T10:43:42.506Z,78.60
2023-05-04T10:45:15.253Z,79.00
2023-05-04T10:46:59.031Z,79.40
2023-05-04T10:48:36.171Z,79.50
2023-05-04T10:50:10.828Z,77.20
2023-05-04T10:51:49.385Z,76.80
2023-05-04T10:53:32.342Z,77.10
2023-05-04T10:55:06.915Z,77.10
2023-05-04T10:56:39.939Z,77.60
2023-05-04T10:58:14.920Z,76.90
2023-05-04T10:59:57.159Z,76.40
2023-05-04T11:01:30.098Z,76.80
2023-05-04T11:03:03.979Z,76.70
2023-05-04T11:04:37.363Z,76.20
2023-05-04T11:06:16.936Z,74.90
2023-05-04T11:07:53.286Z,73.70
2023-05-04T11:09:28.172Z,73.10
2023-05-04T11:11:02.231Z,73.00
2023-05-04T11:12:35.288Z,73.50
2023-05-04T11:14:08.064Z,73.00
2023-05-04T11:15:52.003Z,72.60
2023-05-04T11:17:28.497Z,72.60
2023-05-04T11:19:07.877Z,72.40
2023-05-04T11:20:40.956Z,71.80
2023-05-04T11:22:14.263Z,71.70
2023-05-04T11:23:47.247Z,69.70
2023-05-04T11:25:27.552Z,69.70
2023-05-04T11:27:00.302Z,70.00
2023-05-04T11:28:34.511Z,70.10
2023-05-04T11:30:08.074Z,70.60
2023-05-04T11:31:42.296Z,69.70
2023-05-04T11:33:15.611Z,70.20
2023-05-04T11:34:48.412Z,69.80
2023-05-04T11:36:21.790Z,69.50
2023-05-04T11:37:55.677Z,68.50
2023-05-04T11:39:28.444Z,66.90
2023-05-04T11:41:02.558Z,66.90
2023-05-04T11:42:36.228Z,67.40
2023-05-04T11:44:10.091Z,66.60
2023-05-04T11:45:43.483Z,66.10
2023-05-04T11:47:17.803Z,65.60
2023-05-04T11:48:50.644Z,66.10
2023-05-04T11:50:23.536Z,65.90
2023-05-04T11:52:06.889Z,66.50
2023-05-04T11:53:40.087Z,64.90
2023-05-04T11:55:13.802Z,64.20
2023-05-04T11:56:46.571Z,64.50
2023-05-04T11:58:24.481Z,64.80
2023-05-04T11:59:57.233Z,65.60
2023-05-04T12:01:35.385Z,65.80
2023-05-04T12:03:12.527Z,65.10
2023-05-04T12:04:45.423Z,64.80
2023-05-04T12:06:18.208Z,64.70
2023-05-04T12:07:50.956Z,63.20
2023-05-04T12:09:23.687Z,63.30
2023-05-04T12:11:16.190Z,63.10
2023-05-04T12:12:49.067Z,62.10
2023-05-04T12:14:24.275Z,62.00
2023-05-04T12:15:59.286Z,63.00
2023-05-04T12:17:40.731Z,62.70
2023-05-04T12:19:14.949Z,62.50
2023-05-04T12:20:48.304Z,63.60
2023-05-04T12:22:27.702Z,61.90
2023-05-04T12:24:00.743Z,61.50
2023-05-04T12:25:34.413Z,60.40
2023-05-04T12:27:12.835Z,60.20
2023-05-04T12:28:45.876Z,60.00
2023-05-04T12:30:18.861Z,60.20
2023-05-04T12:31:51.868Z,60.00
2023-05-04T12:33:25.780Z,59.60
2023-05-04T12:34:59.919Z,60.10
2023-05-04T12:36:32.770Z,60.50
2023-05-04T12:38:06.197Z,59.20
2023-05-04T12:39:39.433Z,59.90
2023-05-04T12:41:12.515Z,60.80
2023-05-04T12:42:45.619Z,60.10
2023-05-04T12:44:18.930Z,60.50
2023-05-04T12:45:51.945Z,60.40
2023-05-04T12:47:24.902Z,60.40
2023-05-04T12:48:57.990Z,61.00
2023-05-04T12:50:32.271Z,62.60
2023-05-04T12:52:05.087Z,61.60
2023-05-04T12:53:37.818Z,60.10
2023-05-04T12:55:10.863Z,60.50
2023-05-04T12:56:43.656Z,60.70
2023-05-04T12:58:16.462Z,60.80
2023-05-04T12:59:49.237Z,61.20
2023-05-04T13:01:22.076Z,60.70
2023-05-04T13:02:54.930Z,61.20
2023-05-04T13:04:27.737Z,61.20
2023-05-04T13:06:01.889Z,61.10
2023-05-04T13:07:37.977Z,61.40
2023-05-04T13:09:11.189Z,61.80
2023-05-04T13:10:46.165Z,62.00
2023-05-04T13:12:19.057Z,61.90
2023-05-04T13:13:53.084Z,62.00
2023-05-04T13:15:25.789Z,61.70
2023-05-04T13:16:58.951Z,61.60
2023-05-04T13:18:32.156Z,61.10
2023-05-04T13:20:06.214Z,61.40
2023-05-04T13:21:40.662Z,60.80
2023-05-04T13:23:14.046Z,61.40
2023-05-04T13:24:46.913Z,62.10
2023-05-04T13:26:19.877Z,62.30
2023-05-04T13:27:53.003Z,62.50
2023-05-04T13:29:25.862Z,62.10
2023-05-04T13:30:58.753Z,62.00
2023-05-04T13:32:32.077Z,61.50
2023-05-04T13:34:05.336Z,60.60
2023-05-04T13:35:38.391Z,59.20
2023-05-04T13:37:18.357Z,59.70
2023-05-04T13:38:51.268Z,59.40
2023-05-04T13:40:24.187Z,58.80
2023-05-04T13:41:56.970Z,59.20
2023-05-04T13:43:29.805Z,59.10
2023-05-04T13:45:02.662Z,57.90
2023-05-04T13:46:36.329Z,58.20
2023-05-04T13:48:09.169Z,58.30
2023-05-04T13:49:41.996Z,58.00
2023-05-04T13:51:14.802Z,57.90
2023-05-04T13:52:48.965Z,57.70
2023-05-04T13:54:22.196Z,58.00
2023-05-04T13:55:54.949Z,57.70
2023-05-04T13:57:28.416Z,58.00
2023-05-04T13:59:01.219Z,56.70
2023-05-04T14:00:34.529Z,57.20
2023-05-04T14:02:07.489Z,57.50
2023-05-04T14:03:40.909Z,56.50
2023-05-04T14:05:14.098Z,57.30
2023-05-04T14:06:49.295Z,57.60
2023-05-04T14:08:23.674Z,56.70
2023-05-04T14:09:56.682Z,56.80
2023-05-04T14:11:29.549Z,56.70
2023-05-04T14:13:02.421Z,56.70
2023-05-04T14:14:35.267Z,56.30
2023-05-04T14:16:08.292Z,56.50
2023-05-04T14:17:41.217Z,55.40
2023-05-04T14:19:14.147Z,55.20
2023-05-04T14:20:46.951Z,55.30
2023-05-04T14:22:19.758Z,54.60
2023-05-04T14:23:54.052Z,53.80
2023-05-04T14:25:27.080Z,53.60
2023-05-04T14:26:59.861Z,54.30
2023-05-04T14:28:32.730Z,55.10
2023-05-04T14:30:06.111Z,55.60
2023-05-04T14:31:38.982Z,54.80
2023-05-04T14:33:11.788Z,54.30
2023-05-04T14:34:44.689Z,54.50
2023-05-04T14:36:17.596Z,54.30
2023-05-04T14:37:50.673Z,53.20
2023-05-04T14:39:25.269Z,52.60
2023-05-04T14:40:58.140Z,52.70
2023-05-04T14:42:30.903Z,53.00
2023-05-04T14:44:03.707Z,53.00
2023-05-04T14:45:36.567Z,53.00
2023-05-04T14:47:09.469Z,52.20
2023-05-04T14:48:42.331Z,52.20
2023-05-04T14:50:15.457Z,52.00
2023-05-04T14:51:48.990Z,52.40
2023-05-04T14:53:23.102Z,52.30
2023-05-04T14:54:57.298Z,52.10
2023-05-04T14:56:30.098Z,51.30
2023-05-04T14:58:03.107Z,52.00
2023-05-04T14:59:37.467Z,52.40
2023-05-04T15:01:10.501Z,52.90
2023-05-04T15:02:43.311Z,51.80
2023-05-04T15:04:17.205Z,52.60
2023-05-04T15:05:50.081Z,52.50
2023-05-04T15:07:22.884Z,52.80
2023-05-04T15:08:55.696Z,54.70
2023-05-04T15:10:30.042Z,52.50
2023-05-04T15:12:03.432Z,51.50
2023-05-04T15:13:36.326Z,51.50
2023-05-04T15:15:09.564Z,51.70
2023-05-04T15:16:42.379Z,51.70
2023-05-04T15:18:15.293Z,52.30
2023-05-04T15:19:48.012Z,52.00
2023-05-04T15:21:20.994Z,51.70
2023-05-04T15:22:54.069Z,51.20
2023-05-04T15:24:27.006Z,51.20
2023-05-04T15:26:02.139Z,51.00
2023-05-04T15:27:35.152Z,51.10
2023-05-04T15:29:07.993Z,51.10
2023-05-04T15:30:41.273Z,51.80
2023-05-04T15:32:14.067Z,52.00
2023-05-04T15:33:48.527Z,52.30
2023-05-04T15:35:21.613Z,52.30
2023-05-04T15:36:54.493Z,51.50
2023-05-04T15:38:28.585Z,51.50
2023-05-04T15:40:02.518Z,52.10
2023-05-04T15:41:36.996Z,51.70
2023-05-04T15:43:10.081Z,51.30
2023-05-04T15:44:42.858Z,50.70
2023-05-04T15:46:15.847Z,51.10
2023-05-04T15:47:48.737Z,50.60
2023-05-04T15:49:21.555Z,50.30
2023-05-04T15:50:54.463Z,50.40
2023-05-04T15:52:27.481Z,50.80
2023-05-04T15:54:00.462Z,50.90
2023-05-04T15:55:33.230Z,51.90
2023-05-04T15:57:07.758Z,51.00
2023-05-04T15:58:40.729Z,51.00
2023-05-04T16:00:14.711Z,51.50
2023-05-04T16:01:47.474Z,51.40
2023-05-04T16:03:20.706Z,51.10
2023-05-04T16:04:53.501Z,50.30
2023-05-04T16:06:26.262Z,51.30
2023-05-04T16:07:59.079Z,48.70
2023-05-04T16:09:31.900Z,49.50
2023-05-04T16:11:05.233Z,48.40
2023-05-04T16:12:39.556Z,48.10
2023-05-04T16:14:12.640Z,47.50
2023-05-04T16:15:45.430Z,46.90
2023-05-04T16:17:18.297Z,47.50
2023-05-04T16:18:51.143Z,47.70
2023-05-04T16:20:23.034Z,48.00
2023-05-04T16:21:55.801Z,47.90
2023-05-04T16:23:28.758Z,48.10
2023-05-04T16:25:01.989Z,49.30
2023-05-04T16:26:34.814Z,48.30
2023-05-04T16:28:09.108Z,48.80
2023-05-04T16:29:41.856Z,48.20
2023-05-04T16:31:14.734Z,49.00
2023-05-04T16:32:47.481Z,47.30
2023-05-04T16:34:20.282Z,47.40
2023-05-04T16:35:53.098Z,47.50
2023-05-04T16:37:25.940Z,47.60
2023-05-04T16:38:58.708Z,48.20
2023-05-04T16:40:32.521Z,47.50
2023-05-04T16:42:05.405Z,47.20
2023-05-04T16:43:39.520Z,47.30
2023-05-04T16:45:13.477Z,48.40
2023-05-04T16:46:46.436Z,47.40
2023-05-04T16:48:19.309Z,47.80
2023-05-04T16:49:52.274Z,47.10
2023-05-04T16:51:24.957Z,48.40
2023-05-04T16:52:57.998Z,47.80
2023-05-04T16:54:34.294Z,47.50
2023-05-04T16:56:07.375Z,49.00
2023-05-04T16:57:42.799Z,48.00
2023-05-04T16:59:23.317Z,48.30
2023-05-04T17:00:58.170Z,47.90
2023-05-04T17:02:31.827Z,48.40
2023-05-04T17:04:04.782Z,48.70
2023-05-04T17:05:37.623Z,49.20
2023-05-04T17:07:11.112Z,49.50
2023-05-04T17:08:44.094Z,49.30
2023-05-04T17:10:19.705Z,49.10
2023-05-04T17:11:57.697Z,49.60
2023-05-04T17:13:30.488Z,49.30
2023-05-04T17:15:05.112Z,49.70
2023-05-04T17:16:37.909Z,49.70
2023-05-04T17:18:10.764Z,50.20
2023-05-04T17:19:43.472Z,49.90
2023-05-04T17:21:17.312Z,50.00
2023-05-04T17:22:51.693Z,49.20
2023-05-04T17:24:24.499Z,49.70
2023-05-04T17:26:01.737Z,49.90
2023-05-04T17:27:38.813Z,50.10
2023-05-04T17:29:11.934Z,50.30
2023-05-04T17:30:46.153Z,50.70
2023-05-04T17:32:19.045Z,50.90
2023-05-04T17:33:51.804Z,50.80
2023-05-04T17:35:26.323Z,51.00
2023-05-04T17:36:59.460Z,50.60
2023-05-04T17:38:32.597Z,51.40
2023-05-04T17:40:06.117Z,53.10
2023-05-04T17:41:39.219Z,51.50
2023-05-04T17:43:11.957Z,52.50
2023-05-04T17:44:44.678Z,52.80
2023-05-04T17:46:18.784Z,52.40
2023-05-04T17:47:50.765Z,52.80
2023-05-04T17:49:23.591Z,52.60
2023-05-04T17:50:56.342Z,52.70
2023-05-04T17:52:29.126Z,53.00
2023-05-04T17:54:01.973Z,53.20
2023-05-04T17:55:34.795Z,53.90
2023-05-04T17:57:07.709Z,54.20
2023-05-04T17:58:40.506Z,54.80
2023-05-04T18:00:13.916Z,54.00
2023-05-04T18:01:48.005Z,53.80
2023-05-04T18:03:21.058Z,54.20
2023-05-04T18:04:53.902Z,54.50
2023-05-04T18:06:26.695Z,54.30
2023-05-04T18:07:59.455Z,54.50
2023-05-04T18:09:32.280Z,54.50
2023-05-04T18:11:05.172Z,54.10
2023-05-04T18:12:38.377Z,54.60
2023-05-04T18:14:11.469Z,54.90
2023-05-04T18:15:44.322Z,54.80
2023-05-04T18:17:18.526Z,55.00
2023-05-04T18:18:51.637Z,55.30
2023-05-04T18:20:24.628Z,55.40
2023-05-04T18:21:57.350Z,55.40
2023-05-04T18:23:30.268Z,55.40
2023-05-04T18:25:03.586Z,55.90
2023-05-04T18:26:36.658Z,56.10
2023-05-04T18:28:09.641Z,55.80
2023-05-04T18:29:42.390Z,56.20
2023-05-04T18:31:15.294Z,56.20
2023-05-04T18:32:49.465Z,56.50
2023-05-04T18:34:22.380Z,56.70
2023-05-04T18:35:55.199Z,56.50
2023-05-04T18:37:30.458Z,56.40
2023-05-04T18:39:03.570Z,56.70
2023-05-04T18:40:36.353Z,56.80
2023-05-04T18:42:09.061Z,57.20
2023-05-04T18:43:41.911Z,57.20
2023-05-04T18:45:14.733Z,57.20
2023-05-04T18:46:47.451Z,57.30
2023-05-04T18:48:21.958Z,57.20
2023-05-04T18:49:56.221Z,57.00
2023-05-04T18:51:29.241Z,57.40
2023-05-04T18:53:02.004Z,57.60
2023-05-04T18:54:34.820Z,56.70
2023-05-04T18:56:10.253Z,56.60
2023-05-04T18:57:42.995Z,56.20
2023-05-04T18:59:16.159Z,56.90
2023-05-04T19:00:49.028Z,57.10
2023-05-04T19:02:21.818Z,56.90
2023-05-04T19:03:56.270Z,56.70
2023-05-04T19:05:29.107Z,57.20
2023-05-04T19:07:01.866Z,57.50
2023-05-04T19:08:34.770Z,57.70
2023-05-04T19:10:08.577Z,57.50
2023-05-04T19:11:41.768Z,57.30
2023-05-04T19:13:15.088Z,57.50
2023-05-04T19:14:47.850Z,57.50
2023-05-04T19:16:20.708Z,57.90
2023-05-04T19:17:53.768Z,58.20
2023-05-04T19:19:27.970Z,58.00
2023-05-04T19:21:04.634Z,58.10
2023-05-04T19:22:37.526Z,58.20
2023-05-04T19:24:11.119Z,58.60
2023-05-04T19:25:45.025Z,59.00
2023-05-04T19:27:17.809Z,59.00
2023-05-04T19:28:50.569Z,58.50
2023-05-04T19:30:23.385Z,59.20
2023-05-04T19:31:56.692Z,59.30
2023-05-04T19:33:44.596Z,59.50
2023-05-04T19:35:21.794Z,59.70
2023-05-04T19:36:54.542Z,59.30
2023-05-04T19:38:27.535Z,59.50
2023-05-04T19:40:00.386Z,59.70
2023-05-04T19:41:33.166Z,60.10
2023-05-04T19:43:05.930Z,60.30
2023-05-04T19:44:38.644Z,60.40
2023-05-04T19:46:11.448Z,60.40
2023-05-04T19:47:45.460Z,60.50
2023-05-04T19:49:18.292Z,61.10
2023-05-04T19:50:52.353Z,60.60
2023-05-04T19:52:25.090Z,61.10
2023-05-04T19:53:57.779Z,61.20
2023-05-04T19:55:30.524Z,61.20
2023-05-04T19:57:03.336Z,61.30
2023-05-04T19:58:36.310Z,61.30
2023-05-04T20:00:10.470Z,61.60
2023-05-04T20:01:43.340Z,62.00
2023-05-04T20:03:16.967Z,62.20
2023-05-04T20:04:49.818Z,62.30
2023-05-04T20:06:23.887Z,62.50